sensor_id;sensor_type;location;lat;lon;timestamp;P1;durP1;ratioP1;P2;durP2;ratioP2
21352;SDS011;10834;52.268;6.770;2023-09-07T00:01:29;7.90;;;4.75;;
21352;SDS011;10834;52.268;6.770;2023-09-07T00:04:15;6.25;;;5.45;;
21352;SDS011;10834;52.268;6.770;2023-09-07T00:06:59;5.20;;;4.78;;
21352;SDS011;10834;52.268;6.770;2023-09-07T00:09:43;5.35;;;4.95;;
21352;SDS011;10834;52.268;6.770;2023-09-07T00:12:27;7.20;;;4.80;;
21352;SDS011;10834;52.268;6.770;2023-09-07T00:15:12;6.07;;;4.93;;
21352;SDS011;10834;52.268;6.770;2023-09-07T00:17:56;5.43;;;4.57;;
21352;SDS011;10834;52.268;6.770;2023-09-07T00:20:40;5.47;;;4.65;;
21352;SDS011;10834;52.268;6.770;2023-09-07T00:23:24;5.18;;;4.57;;
21352;SDS011;10834;52.268;6.770;2023-09-07T00:26:08;6.07;;;4.35;;
21352;SDS011;10834;52.268;6.770;2023-09-07T00:28:52;4.93;;;4.18;;
21352;SDS011;10834;52.268;6.770;2023-09-07T00:31:37;6.15;;;4.60;;
21352;SDS011;10834;52.268;6.770;2023-09-07T00:34:21;5.22;;;4.72;;
21352;SDS011;10834;52.268;6.770;2023-09-07T00:37:05;8.38;;;4.72;;
21352;SDS011;10834;52.268;6.770;2023-09-07T00:39:49;7.32;;;4.88;;
21352;SDS011;10834;52.268;6.770;2023-09-07T00:42:33;5.47;;;4.97;;
21352;SDS011;10834;52.268;6.770;2023-09-07T00:45:17;8.77;;;5.07;;
21352;SDS011;10834;52.268;6.770;2023-09-07T00:48:02;5.80;;;4.63;;
21352;SDS011;10834;52.268;6.770;2023-09-07T00:50:46;5.80;;;5.22;;
21352;SDS011;10834;52.268;6.770;2023-09-07T00:53:31;5.03;;;4.53;;
21352;SDS011;10834;52.268;6.770;2023-09-07T00:56:15;6.50;;;4.35;;
21352;SDS011;10834;52.268;6.770;2023-09-07T00:59:00;5.00;;;4.60;;
21352;SDS011;10834;52.268;6.770;2023-09-07T01:01:44;6.47;;;4.65;;
21352;SDS011;10834;52.268;6.770;2023-09-07T01:04:28;5.28;;;4.78;;
21352;SDS011;10834;52.268;6.770;2023-09-07T01:07:25;5.47;;;4.97;;
21352;SDS011;10834;52.268;6.770;2023-09-07T01:10:20;5.43;;;4.65;;
21352;SDS011;10834;52.268;6.770;2023-09-07T01:13:06;5.10;;;4.55;;
21352;SDS011;10834;52.268;6.770;2023-09-07T01:15:51;5.07;;;4.40;;
21352;SDS011;10834;52.268;6.770;2023-09-07T01:18:36;6.30;;;4.75;;
21352;SDS011;10834;52.268;6.770;2023-09-07T01:21:21;5.40;;;4.90;;
21352;SDS011;10834;52.268;6.770;2023-09-07T01:24:06;5.93;;;4.65;;
21352;SDS011;10834;52.268;6.770;2023-09-07T01:26:52;6.53;;;5.28;;
21352;SDS011;10834;52.268;6.770;2023-09-07T01:29:37;5.47;;;4.97;;
21352;SDS011;10834;52.268;6.770;2023-09-07T01:32:21;7.75;;;4.82;;
21352;SDS011;10834;52.268;6.770;2023-09-07T01:35:05;5.35;;;4.85;;
21352;SDS011;10834;52.268;6.770;2023-09-07T01:37:53;5.63;;;4.93;;
21352;SDS011;10834;52.268;6.770;2023-09-07T01:40:37;5.30;;;4.70;;
21352;SDS011;10834;52.268;6.770;2023-09-07T01:43:21;5.68;;;4.95;;
21352;SDS011;10834;52.268;6.770;2023-09-07T01:46:05;7.60;;;4.45;;
21352;SDS011;10834;52.268;6.770;2023-09-07T01:48:49;7.50;;;5.13;;
21352;SDS011;10834;52.268;6.770;2023-09-07T01:51:33;6.43;;;4.60;;
21352;SDS011;10834;52.268;6.770;2023-09-07T01:54:20;5.20;;;4.70;;
21352;SDS011;10834;52.268;6.770;2023-09-07T01:57:05;6.20;;;5.10;;
21352;SDS011;10834;52.268;6.770;2023-09-07T01:59:49;6.28;;;4.68;;
21352;SDS011;10834;52.268;6.770;2023-09-07T02:02:33;5.85;;;5.15;;
21352;SDS011;10834;52.268;6.770;2023-09-07T02:05:17;5.28;;;4.80;;
21352;SDS011;10834;52.268;6.770;2023-09-07T02:08:02;5.18;;;4.40;;
21352;SDS011;10834;52.268;6.770;2023-09-07T02:10:47;5.70;;;5.20;;
21352;SDS011;10834;52.268;6.770;2023-09-07T02:13:31;6.32;;;5.18;;
21352;SDS011;10834;52.268;6.770;2023-09-07T02:16:15;5.47;;;4.68;;
21352;SDS011;10834;52.268;6.770;2023-09-07T02:19:03;4.75;;;4.40;;
21352;SDS011;10834;52.268;6.770;2023-09-07T02:21:48;7.57;;;5.05;;
21352;SDS011;10834;52.268;6.770;2023-09-07T02:24:33;5.22;;;4.72;;
21352;SDS011;10834;52.268;6.770;2023-09-07T02:27:18;5.85;;;4.40;;
21352;SDS011;10834;52.268;6.770;2023-09-07T02:30:03;5.38;;;4.88;;
21352;SDS011;10834;52.268;6.770;2023-09-07T02:32:48;7.78;;;5.07;;
21352;SDS011;10834;52.268;6.770;2023-09-07T02:35:32;6.90;;;5.13;;
21352;SDS011;10834;52.268;6.770;2023-09-07T02:38:16;7.72;;;4.97;;
21352;SDS011;10834;52.268;6.770;2023-09-07T02:41:00;5.10;;;4.60;;
21352;SDS011;10834;52.268;6.770;2023-09-07T02:43:45;7.95;;;5.28;;
21352;SDS011;10834;52.268;6.770;2023-09-07T02:46:30;6.43;;;5.30;;
21352;SDS011;10834;52.268;6.770;2023-09-07T02:49:14;5.50;;;5.00;;
21352;SDS011;10834;52.268;6.770;2023-09-07T02:51:58;5.72;;;5.22;;
21352;SDS011;10834;52.268;6.770;2023-09-07T02:54:42;8.45;;;5.43;;
21352;SDS011;10834;52.268;6.770;2023-09-07T02:57:26;8.77;;;5.88;;
21352;SDS011;10834;52.268;6.770;2023-09-07T03:00:11;6.32;;;4.72;;
21352;SDS011;10834;52.268;6.770;2023-09-07T03:02:55;6.25;;;5.32;;
21352;SDS011;10834;52.268;6.770;2023-09-07T03:05:40;6.30;;;5.70;;
21352;SDS011;10834;52.268;6.770;2023-09-07T03:08:25;7.53;;;5.82;;
21352;SDS011;10834;52.268;6.770;2023-09-07T03:11:09;7.22;;;5.25;;
21352;SDS011;10834;52.268;6.770;2023-09-07T03:13:53;6.80;;;6.10;;
21352;SDS011;10834;52.268;6.770;2023-09-07T03:16:38;6.10;;;5.57;;
21352;SDS011;10834;52.268;6.770;2023-09-07T03:19:22;6.53;;;5.90;;
21352;SDS011;10834;52.268;6.770;2023-09-07T03:22:06;6.57;;;5.78;;
21352;SDS011;10834;52.268;6.770;2023-09-07T03:24:51;11.75;;;5.97;;
21352;SDS011;10834;52.268;6.770;2023-09-07T03:27:36;6.45;;;5.85;;
21352;SDS011;10834;52.268;6.770;2023-09-07T03:30:21;8.68;;;6.20;;
21352;SDS011;10834;52.268;6.770;2023-09-07T03:33:05;7.05;;;5.90;;
21352;SDS011;10834;52.268;6.770;2023-09-07T03:35:49;6.97;;;5.80;;
21352;SDS011;10834;52.268;6.770;2023-09-07T03:38:35;10.25;;;6.95;;
21352;SDS011;10834;52.268;6.770;2023-09-07T03:41:19;6.97;;;6.07;;
21352;SDS011;10834;52.268;6.770;2023-09-07T03:44:03;9.63;;;6.93;;
21352;SDS011;10834;52.268;6.770;2023-09-07T03:46:48;7.15;;;6.50;;
21352;SDS011;10834;52.268;6.770;2023-09-07T03:49:32;7.72;;;6.60;;
21352;SDS011;10834;52.268;6.770;2023-09-07T03:52:16;7.85;;;6.28;;
21352;SDS011;10834;52.268;6.770;2023-09-07T03:55:00;8.20;;;6.35;;
21352;SDS011;10834;52.268;6.770;2023-09-07T03:57:44;8.77;;;6.75;;
21352;SDS011;10834;52.268;6.770;2023-09-07T04:00:29;11.85;;;6.57;;
21352;SDS011;10834;52.268;6.770;2023-09-07T04:03:13;9.13;;;7.47;;
21352;SDS011;10834;52.268;6.770;2023-09-07T04:05:58;7.90;;;6.90;;
21352;SDS011;10834;52.268;6.770;2023-09-07T04:08:42;7.05;;;6.50;;
21352;SDS011;10834;52.268;6.770;2023-09-07T04:11:26;7.80;;;6.97;;
21352;SDS011;10834;52.268;6.770;2023-09-07T04:14:10;8.23;;;7.40;;
21352;SDS011;10834;52.268;6.770;2023-09-07T04:16:54;8.23;;;7.25;;
21352;SDS011;10834;52.268;6.770;2023-09-07T04:19:38;8.77;;;6.45;;
21352;SDS011;10834;52.268;6.770;2023-09-07T04:22:22;7.57;;;6.43;;
21352;SDS011;10834;52.268;6.770;2023-09-07T04:25:06;16.02;;;8.20;;
21352;SDS011;10834;52.268;6.770;2023-09-07T04:27:51;10.70;;;7.85;;
21352;SDS011;10834;52.268;6.770;2023-09-07T04:30:39;8.90;;;7.57;;
21352;SDS011;10834;52.268;6.770;2023-09-07T04:33:24;8.27;;;6.70;;
21352;SDS011;10834;52.268;6.770;2023-09-07T04:36:15;9.40;;;6.78;;
21352;SDS011;10834;52.268;6.770;2023-09-07T04:38:59;7.65;;;6.85;;
21352;SDS011;10834;52.268;6.770;2023-09-07T04:41:43;9.23;;;7.30;;
21352;SDS011;10834;52.268;6.770;2023-09-07T04:44:27;7.32;;;6.65;;
21352;SDS011;10834;52.268;6.770;2023-09-07T04:47:11;10.95;;;7.50;;
21352;SDS011;10834;52.268;6.770;2023-09-07T04:49:56;8.05;;;7.20;;
21352;SDS011;10834;52.268;6.770;2023-09-07T04:52:40;9.00;;;7.50;;
21352;SDS011;10834;52.268;6.770;2023-09-07T04:55:24;8.02;;;6.88;;
21352;SDS011;10834;52.268;6.770;2023-09-07T04:58:08;7.70;;;6.93;;
21352;SDS011;10834;52.268;6.770;2023-09-07T05:00:52;9.75;;;7.43;;
21352;SDS011;10834;52.268;6.770;2023-09-07T05:03:37;7.82;;;6.88;;
21352;SDS011;10834;52.268;6.770;2023-09-07T05:06:23;7.90;;;7.18;;
21352;SDS011;10834;52.268;6.770;2023-09-07T05:09:09;8.43;;;7.57;;
21352;SDS011;10834;52.268;6.770;2023-09-07T05:11:53;7.63;;;6.82;;
21352;SDS011;10834;52.268;6.770;2023-09-07T05:14:37;8.23;;;6.80;;
21352;SDS011;10834;52.268;6.770;2023-09-07T05:17:21;7.72;;;6.93;;
21352;SDS011;10834;52.268;6.770;2023-09-07T05:20:06;7.75;;;6.43;;
21352;SDS011;10834;52.268;6.770;2023-09-07T05:22:50;9.90;;;6.80;;
21352;SDS011;10834;52.268;6.770;2023-09-07T05:25:42;8.00;;;7.10;;
21352;SDS011;10834;52.268;6.770;2023-09-07T05:28:27;10.05;;;8.02;;
21352;SDS011;10834;52.268;6.770;2023-09-07T05:31:11;9.68;;;7.85;;
21352;SDS011;10834;52.268;6.770;2023-09-07T05:33:55;7.55;;;6.75;;
21352;SDS011;10834;52.268;6.770;2023-09-07T05:36:39;12.57;;;6.82;;
21352;SDS011;10834;52.268;6.770;2023-09-07T05:39:23;7.90;;;7.10;;
21352;SDS011;10834;52.268;6.770;2023-09-07T05:42:07;8.65;;;6.85;;
21352;SDS011;10834;52.268;6.770;2023-09-07T05:44:51;7.70;;;7.00;;
21352;SDS011;10834;52.268;6.770;2023-09-07T05:47:35;7.00;;;6.07;;
21352;SDS011;10834;52.268;6.770;2023-09-07T05:50:19;7.10;;;6.13;;
21352;SDS011;10834;52.268;6.770;2023-09-07T05:53:04;7.65;;;6.43;;
21352;SDS011;10834;52.268;6.770;2023-09-07T05:55:49;9.70;;;7.15;;
21352;SDS011;10834;52.268;6.770;2023-09-07T05:58:33;8.57;;;6.75;;
21352;SDS011;10834;52.268;6.770;2023-09-07T06:01:17;8.57;;;5.90;;
21352;SDS011;10834;52.268;6.770;2023-09-07T06:04:02;8.18;;;5.65;;
21352;SDS011;10834;52.268;6.770;2023-09-07T06:06:47;7.78;;;6.55;;
21352;SDS011;10834;52.268;6.770;2023-09-07T06:09:31;9.35;;;6.88;;
21352;SDS011;10834;52.268;6.770;2023-09-07T06:12:15;8.38;;;6.80;;
21352;SDS011;10834;52.268;6.770;2023-09-07T06:15:00;7.00;;;6.30;;
21352;SDS011;10834;52.268;6.770;2023-09-07T06:17:45;7.80;;;6.13;;
21352;SDS011;10834;52.268;6.770;2023-09-07T06:20:29;7.20;;;6.50;;
21352;SDS011;10834;52.268;6.770;2023-09-07T06:23:14;7.15;;;6.05;;
21352;SDS011;10834;52.268;6.770;2023-09-07T06:25:57;6.85;;;6.13;;
21352;SDS011;10834;52.268;6.770;2023-09-07T06:28:42;7.10;;;5.70;;
21352;SDS011;10834;52.268;6.770;2023-09-07T06:31:26;6.85;;;6.18;;
21352;SDS011;10834;52.268;6.770;2023-09-07T06:34:10;7.57;;;6.30;;
21352;SDS011;10834;52.268;6.770;2023-09-07T06:36:54;7.43;;;5.70;;
21352;SDS011;10834;52.268;6.770;2023-09-07T06:39:38;8.52;;;6.38;;
21352;SDS011;10834;52.268;6.770;2023-09-07T06:42:23;7.35;;;5.65;;
21352;SDS011;10834;52.268;6.770;2023-09-07T06:45:07;9.85;;;5.88;;
21352;SDS011;10834;52.268;6.770;2023-09-07T06:47:52;8.98;;;5.15;;
21352;SDS011;10834;52.268;6.770;2023-09-07T06:50:36;7.10;;;5.50;;
21352;SDS011;10834;52.268;6.770;2023-09-07T06:53:21;10.38;;;6.47;;
21352;SDS011;10834;52.268;6.770;2023-09-07T06:56:05;6.43;;;5.82;;
21352;SDS011;10834;52.268;6.770;2023-09-07T06:58:51;6.50;;;5.90;;
21352;SDS011;10834;52.268;6.770;2023-09-07T07:01:35;8.70;;;6.20;;
21352;SDS011;10834;52.268;6.770;2023-09-07T07:04:19;5.50;;;5.10;;
21352;SDS011;10834;52.268;6.770;2023-09-07T07:07:03;6.93;;;5.72;;
21352;SDS011;10834;52.268;6.770;2023-09-07T07:09:49;7.25;;;5.28;;
21352;SDS011;10834;52.268;6.770;2023-09-07T07:12:34;9.02;;;5.43;;
21352;SDS011;10834;52.268;6.770;2023-09-07T07:15:18;5.60;;;5.10;;
21352;SDS011;10834;52.268;6.770;2023-09-07T07:18:02;5.75;;;4.32;;
21352;SDS011;10834;52.268;6.770;2023-09-07T07:20:52;5.45;;;4.95;;
21352;SDS011;10834;52.268;6.770;2023-09-07T07:23:36;5.20;;;4.70;;
21352;SDS011;10834;52.268;6.770;2023-09-07T07:26:20;6.28;;;4.78;;
21352;SDS011;10834;52.268;6.770;2023-09-07T07:29:04;7.65;;;5.07;;
21352;SDS011;10834;52.268;6.770;2023-09-07T07:31:48;6.05;;;5.18;;
21352;SDS011;10834;52.268;6.770;2023-09-07T07:34:32;7.90;;;5.03;;
21352;SDS011;10834;52.268;6.770;2023-09-07T07:37:16;5.90;;;5.30;;
21352;SDS011;10834;52.268;6.770;2023-09-07T07:40:01;5.13;;;4.72;;
21352;SDS011;10834;52.268;6.770;2023-09-07T07:42:45;6.35;;;4.50;;
21352;SDS011;10834;52.268;6.770;2023-09-07T07:45:30;4.90;;;4.50;;
21352;SDS011;10834;52.268;6.770;2023-09-07T07:48:19;6.07;;;4.57;;
21352;SDS011;10834;52.268;6.770;2023-09-07T07:51:03;6.55;;;4.88;;
21352;SDS011;10834;52.268;6.770;2023-09-07T07:53:48;7.53;;;4.93;;
21352;SDS011;10834;52.268;6.770;2023-09-07T07:56:33;6.70;;;4.75;;
21352;SDS011;10834;52.268;6.770;2023-09-07T07:59:17;5.97;;;4.40;;
21352;SDS011;10834;52.268;6.770;2023-09-07T08:02:01;5.18;;;4.68;;
21352;SDS011;10834;52.268;6.770;2023-09-07T08:04:45;5.20;;;4.68;;
21352;SDS011;10834;52.268;6.770;2023-09-07T08:07:29;7.28;;;5.03;;
21352;SDS011;10834;52.268;6.770;2023-09-07T08:10:13;6.03;;;4.75;;
21352;SDS011;10834;52.268;6.770;2023-09-07T08:12:58;6.68;;;5.20;;
21352;SDS011;10834;52.268;6.770;2023-09-07T08:15:42;7.57;;;4.68;;
21352;SDS011;10834;52.268;6.770;2023-09-07T08:18:26;5.60;;;4.82;;
21352;SDS011;10834;52.268;6.770;2023-09-07T08:21:11;5.07;;;4.15;;
21352;SDS011;10834;52.268;6.770;2023-09-07T08:23:57;5.40;;;4.93;;
21352;SDS011;10834;52.268;6.770;2023-09-07T08:26:41;7.78;;;5.70;;
21352;SDS011;10834;52.268;6.770;2023-09-07T08:29:26;4.50;;;4.10;;
21352;SDS011;10834;52.268;6.770;2023-09-07T08:32:11;5.63;;;4.60;;
21352;SDS011;10834;52.268;6.770;2023-09-07T08:34:56;7.22;;;4.95;;
21352;SDS011;10834;52.268;6.770;2023-09-07T08:37:44;6.45;;;4.57;;
21352;SDS011;10834;52.268;6.770;2023-09-07T08:40:28;7.05;;;5.00;;
21352;SDS011;10834;52.268;6.770;2023-09-07T08:43:13;5.45;;;4.88;;
21352;SDS011;10834;52.268;6.770;2023-09-07T08:46:05;4.90;;;4.30;;
21352;SDS011;10834;52.268;6.770;2023-09-07T08:48:57;5.20;;;4.72;;
21352;SDS011;10834;52.268;6.770;2023-09-07T08:51:43;5.57;;;4.60;;
21352;SDS011;10834;52.268;6.770;2023-09-07T08:54:28;4.95;;;4.55;;
21352;SDS011;10834;52.268;6.770;2023-09-07T08:57:13;5.30;;;4.57;;
21352;SDS011;10834;52.268;6.770;2023-09-07T08:59:59;7.40;;;5.10;;
21352;SDS011;10834;52.268;6.770;2023-09-07T09:02:47;6.85;;;4.78;;
21352;SDS011;10834;52.268;6.770;2023-09-07T09:05:31;5.38;;;4.45;;
21352;SDS011;10834;52.268;6.770;2023-09-07T09:08:17;6.88;;;5.07;;
21352;SDS011;10834;52.268;6.770;2023-09-07T09:11:07;4.90;;;4.40;;
21352;SDS011;10834;52.268;6.770;2023-09-07T09:13:53;4.22;;;3.85;;
21352;SDS011;10834;52.268;6.770;2023-09-07T09:16:38;4.38;;;4.03;;
21352;SDS011;10834;52.268;6.770;2023-09-07T09:19:30;4.72;;;4.32;;
21352;SDS011;10834;52.268;6.770;2023-09-07T09:22:15;4.88;;;4.38;;
21352;SDS011;10834;52.268;6.770;2023-09-07T09:25:02;6.47;;;4.30;;
21352;SDS011;10834;52.268;6.770;2023-09-07T09:27:48;4.57;;;4.15;;
21352;SDS011;10834;52.268;6.770;2023-09-07T09:30:32;5.47;;;4.53;;
21352;SDS011;10834;52.268;6.770;2023-09-07T09:33:19;5.78;;;4.05;;
21352;SDS011;10834;52.268;6.770;2023-09-07T09:36:04;5.15;;;4.75;;
21352;SDS011;10834;52.268;6.770;2023-09-07T09:38:50;4.75;;;4.38;;
21352;SDS011;10834;52.268;6.770;2023-09-07T09:41:37;4.75;;;4.28;;
21352;SDS011;10834;52.268;6.770;2023-09-07T09:44:23;4.80;;;4.40;;
21352;SDS011;10834;52.268;6.770;2023-09-07T09:47:09;4.95;;;4.55;;
21352;SDS011;10834;52.268;6.770;2023-09-07T09:49:55;4.22;;;3.92;;
21352;SDS011;10834;52.268;6.770;2023-09-07T09:52:39;4.25;;;3.95;;
21352;SDS011;10834;52.268;6.770;2023-09-07T09:55:23;4.45;;;4.15;;
21352;SDS011;10834;52.268;6.770;2023-09-07T09:58:07;4.88;;;4.47;;
21352;SDS011;10834;52.268;6.770;2023-09-07T10:00:53;4.30;;;4.00;;
21352;SDS011;10834;52.268;6.770;2023-09-07T10:03:40;7.35;;;4.10;;
21352;SDS011;10834;52.268;6.770;2023-09-07T10:06:29;4.78;;;4.35;;
21352;SDS011;10834;52.268;6.770;2023-09-07T10:09:13;6.07;;;4.40;;
21352;SDS011;10834;52.268;6.770;2023-09-07T10:12:01;5.40;;;4.50;;
21352;SDS011;10834;52.268;6.770;2023-09-07T10:14:47;4.95;;;4.53;;
21352;SDS011;10834;52.268;6.770;2023-09-07T10:17:35;4.00;;;3.67;;
21352;SDS011;10834;52.268;6.770;2023-09-07T10:20:19;5.57;;;4.22;;
21352;SDS011;10834;52.268;6.770;2023-09-07T10:23:06;4.50;;;3.72;;
21352;SDS011;10834;52.268;6.770;2023-09-07T10:25:51;4.20;;;3.90;;
21352;SDS011;10834;52.268;6.770;2023-09-07T10:28:36;4.40;;;4.05;;
21352;SDS011;10834;52.268;6.770;2023-09-07T10:31:24;4.57;;;4.28;;
21352;SDS011;10834;52.268;6.770;2023-09-07T10:34:09;4.53;;;4.00;;
21352;SDS011;10834;52.268;6.770;2023-09-07T10:36:57;4.68;;;4.30;;
21352;SDS011;10834;52.268;6.770;2023-09-07T10:39:43;5.25;;;4.78;;
21352;SDS011;10834;52.268;6.770;2023-09-07T10:42:28;4.97;;;4.57;;
21352;SDS011;10834;52.268;6.770;2023-09-07T10:45:14;4.78;;;4.40;;
21352;SDS011;10834;52.268;6.770;2023-09-07T10:48:00;5.85;;;4.32;;
21352;SDS011;10834;52.268;6.770;2023-09-07T10:50:45;7.80;;;4.65;;
21352;SDS011;10834;52.268;6.770;2023-09-07T10:53:30;5.35;;;4.75;;
21352;SDS011;10834;52.268;6.770;2023-09-07T10:56:16;6.25;;;4.55;;
21352;SDS011;10834;52.268;6.770;2023-09-07T10:59:00;6.45;;;4.50;;
21352;SDS011;10834;52.268;6.770;2023-09-07T11:01:46;5.10;;;4.55;;
21352;SDS011;10834;52.268;6.770;2023-09-07T11:04:32;4.35;;;4.05;;
21352;SDS011;10834;52.268;6.770;2023-09-07T11:07:16;6.38;;;4.70;;
21352;SDS011;10834;52.268;6.770;2023-09-07T11:10:01;5.05;;;4.68;;
21352;SDS011;10834;52.268;6.770;2023-09-07T11:12:47;5.20;;;4.70;;
21352;SDS011;10834;52.268;6.770;2023-09-07T11:15:32;4.95;;;4.55;;
21352;SDS011;10834;52.268;6.770;2023-09-07T11:18:20;5.05;;;4.65;;
21352;SDS011;10834;52.268;6.770;2023-09-07T11:21:05;4.63;;;4.32;;
21352;SDS011;10834;52.268;6.770;2023-09-07T11:23:51;7.63;;;4.63;;
21352;SDS011;10834;52.268;6.770;2023-09-07T11:26:45;6.90;;;4.95;;
21352;SDS011;10834;52.268;6.770;2023-09-07T11:29:34;5.65;;;5.13;;
21352;SDS011;10834;52.268;6.770;2023-09-07T11:32:18;5.18;;;4.68;;
21352;SDS011;10834;52.268;6.770;2023-09-07T11:35:05;5.15;;;4.30;;
21352;SDS011;10834;52.268;6.770;2023-09-07T11:37:53;4.93;;;4.53;;
21352;SDS011;10834;52.268;6.770;2023-09-07T11:40:37;7.55;;;4.57;;
21352;SDS011;10834;52.268;6.770;2023-09-07T11:43:21;14.07;;;5.80;;
21352;SDS011;10834;52.268;6.770;2023-09-07T11:46:06;4.93;;;4.53;;
21352;SDS011;10834;52.268;6.770;2023-09-07T11:48:50;5.78;;;4.63;;
21352;SDS011;10834;52.268;6.770;2023-09-07T11:51:34;6.30;;;5.20;;
21352;SDS011;10834;52.268;6.770;2023-09-07T11:54:18;5.00;;;4.60;;
21352;SDS011;10834;52.268;6.770;2023-09-07T11:57:02;4.95;;;4.55;;
21352;SDS011;10834;52.268;6.770;2023-09-07T11:59:47;8.40;;;4.88;;
21352;SDS011;10834;52.268;6.770;2023-09-07T12:02:31;5.40;;;4.90;;
21352;SDS011;10834;52.268;6.770;2023-09-07T12:05:15;5.85;;;5.22;;
21352;SDS011;10834;52.268;6.770;2023-09-07T12:08:01;6.40;;;5.00;;
21352;SDS011;10834;52.268;6.770;2023-09-07T12:10:46;6.82;;;4.82;;
21352;SDS011;10834;52.268;6.770;2023-09-07T12:13:30;5.43;;;4.93;;
21352;SDS011;10834;52.268;6.770;2023-09-07T12:16:14;6.55;;;4.68;;
21352;SDS011;10834;52.268;6.770;2023-09-07T12:18:58;5.30;;;4.80;;
21352;SDS011;10834;52.268;6.770;2023-09-07T12:21:42;5.30;;;4.80;;
21352;SDS011;10834;52.268;6.770;2023-09-07T12:24:26;5.50;;;4.97;;
21352;SDS011;10834;52.268;6.770;2023-09-07T12:27:11;8.13;;;4.95;;
21352;SDS011;10834;52.268;6.770;2023-09-07T12:29:55;5.20;;;4.80;;
21352;SDS011;10834;52.268;6.770;2023-09-07T12:32:39;5.85;;;5.28;;
21352;SDS011;10834;52.268;6.770;2023-09-07T12:35:24;7.60;;;5.50;;
21352;SDS011;10834;52.268;6.770;2023-09-07T12:38:08;5.65;;;4.80;;
21352;SDS011;10834;52.268;6.770;2023-09-07T12:40:55;7.97;;;5.20;;
21352;SDS011;10834;52.268;6.770;2023-09-07T12:43:39;5.80;;;5.30;;
21352;SDS011;10834;52.268;6.770;2023-09-07T12:46:23;6.47;;;5.57;;
21352;SDS011;10834;52.268;6.770;2023-09-07T12:49:08;5.50;;;5.00;;
21352;SDS011;10834;52.268;6.770;2023-09-07T12:51:52;6.55;;;4.95;;
21352;SDS011;10834;52.268;6.770;2023-09-07T12:54:36;6.38;;;5.75;;
21352;SDS011;10834;52.268;6.770;2023-09-07T12:57:20;5.53;;;5.03;;
21352;SDS011;10834;52.268;6.770;2023-09-07T13:00:05;5.97;;;5.35;;
21352;SDS011;10834;52.268;6.770;2023-09-07T13:02:49;5.22;;;4.72;;
21352;SDS011;10834;52.268;6.770;2023-09-07T13:05:34;5.20;;;4.78;;
21352;SDS011;10834;52.268;6.770;2023-09-07T13:08:18;5.05;;;4.65;;
21352;SDS011;10834;52.268;6.770;2023-09-07T13:11:04;4.97;;;4.55;;
21352;SDS011;10834;52.268;6.770;2023-09-07T13:13:48;5.43;;;4.50;;
21352;SDS011;10834;52.268;6.770;2023-09-07T13:16:32;4.95;;;4.28;;
21352;SDS011;10834;52.268;6.770;2023-09-07T13:19:16;5.20;;;4.80;;
21352;SDS011;10834;52.268;6.770;2023-09-07T13:22:00;5.55;;;4.82;;
21352;SDS011;10834;52.268;6.770;2023-09-07T13:24:44;5.53;;;5.00;;
21352;SDS011;10834;52.268;6.770;2023-09-07T13:27:28;7.10;;;4.97;;
21352;SDS011;10834;52.268;6.770;2023-09-07T13:30:12;5.40;;;4.87;;
21352;SDS011;10834;52.268;6.770;2023-09-07T13:32:56;5.13;;;4.68;;
21352;SDS011;10834;52.268;6.770;2023-09-07T13:35:40;5.13;;;4.60;;
21352;SDS011;10834;52.268;6.770;2023-09-07T13:38:25;5.13;;;4.65;;
21352;SDS011;10834;52.268;6.770;2023-09-07T13:41:09;5.47;;;4.32;;
21352;SDS011;10834;52.268;6.770;2023-09-07T13:43:53;4.78;;;4.38;;
21352;SDS011;10834;52.268;6.770;2023-09-07T13:46:37;5.50;;;4.32;;
21352;SDS011;10834;52.268;6.770;2023-09-07T13:49:21;5.45;;;4.00;;
21352;SDS011;10834;52.268;6.770;2023-09-07T13:52:05;6.85;;;4.60;;
21352;SDS011;10834;52.268;6.770;2023-09-07T13:54:50;4.65;;;4.05;;
21352;SDS011;10834;52.268;6.770;2023-09-07T13:57:34;5.80;;;4.35;;
21352;SDS011;10834;52.268;6.770;2023-09-07T14:00:18;5.10;;;4.60;;
21352;SDS011;10834;52.268;6.770;2023-09-07T14:03:02;5.63;;;5.05;;
21352;SDS011;10834;52.268;6.770;2023-09-07T14:05:47;5.70;;;4.40;;
21352;SDS011;10834;52.268;6.770;2023-09-07T14:08:31;4.60;;;4.20;;
21352;SDS011;10834;52.268;6.770;2023-09-07T14:11:17;4.68;;;4.28;;
21352;SDS011;10834;52.268;6.770;2023-09-07T14:14:01;5.30;;;4.90;;
21352;SDS011;10834;52.268;6.770;2023-09-07T14:16:46;4.70;;;4.30;;
21352;SDS011;10834;52.268;6.770;2023-09-07T14:19:30;4.57;;;4.18;;
21352;SDS011;10834;52.268;6.770;2023-09-07T14:22:15;5.55;;;4.28;;
21352;SDS011;10834;52.268;6.770;2023-09-07T14:24:59;4.35;;;4.05;;
21352;SDS011;10834;52.268;6.770;2023-09-07T14:27:43;4.10;;;3.70;;
21352;SDS011;10834;52.268;6.770;2023-09-07T14:30:28;5.65;;;4.50;;
21352;SDS011;10834;52.268;6.770;2023-09-07T14:33:12;4.85;;;4.20;;
21352;SDS011;10834;52.268;6.770;2023-09-07T14:35:57;6.65;;;4.40;;
21352;SDS011;10834;52.268;6.770;2023-09-07T14:38:41;5.60;;;3.95;;
21352;SDS011;10834;52.268;6.770;2023-09-07T14:41:28;3.60;;;3.40;;
21352;SDS011;10834;52.268;6.770;2023-09-07T14:44:13;6.28;;;3.58;;
21352;SDS011;10834;52.268;6.770;2023-09-07T14:46:58;6.28;;;3.92;;
21352;SDS011;10834;52.268;6.770;2023-09-07T14:49:42;4.32;;;3.92;;
21352;SDS011;10834;52.268;6.770;2023-09-07T14:52:26;5.55;;;4.45;;
21352;SDS011;10834;52.268;6.770;2023-09-07T14:55:11;5.25;;;3.55;;
21352;SDS011;10834;52.268;6.770;2023-09-07T14:57:55;3.90;;;3.60;;
21352;SDS011;10834;52.268;6.770;2023-09-07T15:00:39;5.18;;;4.03;;
21352;SDS011;10834;52.268;6.770;2023-09-07T15:03:23;5.00;;;3.58;;
21352;SDS011;10834;52.268;6.770;2023-09-07T15:06:07;5.90;;;3.72;;
21352;SDS011;10834;52.268;6.770;2023-09-07T15:08:55;4.50;;;4.10;;
21352;SDS011;10834;52.268;6.770;2023-09-07T15:11:40;5.20;;;3.92;;
21352;SDS011;10834;52.268;6.770;2023-09-07T15:14:24;4.05;;;3.70;;
21352;SDS011;10834;52.268;6.770;2023-09-07T15:17:08;5.32;;;4.20;;
21352;SDS011;10834;52.268;6.770;2023-09-07T15:19:52;5.30;;;4.80;;
21352;SDS011;10834;52.268;6.770;2023-09-07T15:22:36;4.47;;;4.07;;
21352;SDS011;10834;52.268;6.770;2023-09-07T15:25:20;4.47;;;4.05;;
21352;SDS011;10834;52.268;6.770;2023-09-07T15:28:05;4.90;;;3.78;;
21352;SDS011;10834;52.268;6.770;2023-09-07T15:30:53;4.95;;;4.30;;
21352;SDS011;10834;52.268;6.770;2023-09-07T15:33:37;4.53;;;4.20;;
21352;SDS011;10834;52.268;6.770;2023-09-07T15:36:21;4.30;;;3.90;;
21352;SDS011;10834;52.268;6.770;2023-09-07T15:39:05;5.72;;;4.15;;
21352;SDS011;10834;52.268;6.770;2023-09-07T15:41:49;4.95;;;4.45;;
21352;SDS011;10834;52.268;6.770;2023-09-07T15:44:33;5.57;;;5.07;;
21352;SDS011;10834;52.268;6.770;2023-09-07T15:47:17;5.90;;;4.40;;
21352;SDS011;10834;52.268;6.770;2023-09-07T15:50:02;5.13;;;4.30;;
21352;SDS011;10834;52.268;6.770;2023-09-07T15:52:48;5.03;;;4.05;;
21352;SDS011;10834;52.268;6.770;2023-09-07T15:55:33;7.95;;;6.15;;
21352;SDS011;10834;52.268;6.770;2023-09-07T15:58:17;5.30;;;4.40;;
21352;SDS011;10834;52.268;6.770;2023-09-07T16:01:02;6.93;;;5.00;;
21352;SDS011;10834;52.268;6.770;2023-09-07T16:03:46;5.25;;;4.75;;
21352;SDS011;10834;52.268;6.770;2023-09-07T16:06:30;5.85;;;4.63;;
21352;SDS011;10834;52.268;6.770;2023-09-07T16:09:15;5.10;;;4.70;;
21352;SDS011;10834;52.268;6.770;2023-09-07T16:12:00;4.95;;;4.53;;
21352;SDS011;10834;52.268;6.770;2023-09-07T16:14:44;4.82;;;4.43;;
21352;SDS011;10834;52.268;6.770;2023-09-07T16:17:28;4.60;;;4.20;;
21352;SDS011;10834;52.268;6.770;2023-09-07T16:20:12;4.93;;;4.35;;
21352;SDS011;10834;52.268;6.770;2023-09-07T16:22:57;6.32;;;4.43;;
21352;SDS011;10834;52.268;6.770;2023-09-07T16:25:41;4.38;;;4.00;;
21352;SDS011;10834;52.268;6.770;2023-09-07T16:28:26;5.22;;;4.13;;
21352;SDS011;10834;52.268;6.770;2023-09-07T16:31:10;6.20;;;4.38;;
21352;SDS011;10834;52.268;6.770;2023-09-07T16:33:54;5.80;;;4.15;;